createdAt,value
2023-02-22T00:02:13.039Z,70.54
2023-02-22T00:04:53.831Z,70.74
2023-02-22T00:07:29.198Z,70.60
2023-02-22T00:20:20.001Z,70.38
2023-02-22T00:23:02.034Z,70.42
2023-02-22T00:25:36.261Z,70.41
2023-02-22T00:28:10.025Z,70.27
2023-02-22T00:30:43.974Z,70.28
2023-02-22T00:33:19.031Z,70.15
2023-02-22T00:46:31.024Z,70.08
2023-02-22T00:49:04.289Z,69.93
2023-02-22T00:51:38.025Z,69.80
2023-02-22T00:54:11.412Z,69.71
2023-02-22T00:56:45.030Z,69.76
2023-02-22T01:13:21.993Z,69.55
2023-02-22T01:16:02.016Z,69.49
2023-02-22T01:18:35.838Z,69.67
2023-02-22T01:21:11.004Z,69.78
2023-02-22T01:23:45.348Z,69.87
2023-02-22T01:26:19.032Z,69.70
2023-02-22T01:39:31.018Z,70.11
2023-02-22T01:42:04.385Z,70.05
2023-02-22T01:44:41.019Z,69.98
2023-02-22T01:47:14.361Z,70.13
2023-02-22T01:49:54.002Z,70.05
2023-02-22T01:52:27.437Z,70.12
2023-02-22T02:05:18.032Z,70.44
2023-02-22T02:07:58.097Z,70.32
2023-02-22T02:10:33.312Z,70.19
2023-02-22T02:13:09.275Z,70.25
2023-02-22T02:15:42.521Z,70.10
2023-02-22T02:18:20.021Z,69.98
2023-02-22T02:32:20.086Z,70.07
2023-02-22T02:35:02.537Z,70.13
2023-02-22T02:37:56.036Z,70.22
2023-02-22T02:40:39.634Z,70.09
2023-02-22T02:43:33.021Z,70.13
2023-02-22T02:46:15.323Z,70.13
2023-02-22T02:59:05.975Z,70.00
2023-02-22T03:02:03.995Z,69.77
2023-02-22T03:05:01.570Z,69.90
2023-02-22T03:07:57.004Z,69.86
2023-02-22T03:10:50.025Z,69.98
2023-02-22T03:13:43.820Z,70.11
2023-02-22T03:27:03.989Z,69.78
2023-02-22T03:29:43.858Z,69.78
2023-02-22T03:32:32.002Z,69.94
2023-02-22T03:35:11.633Z,69.85
2023-02-22T03:37:58.008Z,69.62
2023-02-22T03:54:35.005Z,70.08
2023-02-22T03:57:22.995Z,70.13
2023-02-22T04:00:09.702Z,70.07
2023-02-22T04:02:51.107Z,69.96
2023-02-22T04:05:24.939Z,69.92
2023-02-22T04:07:59.017Z,69.86
2023-02-22T04:21:11.994Z,69.77
2023-02-22T04:23:47.504Z,69.78
2023-02-22T04:26:21.021Z,69.87
2023-02-22T04:28:56.903Z,69.84
2023-02-22T04:31:32.007Z,69.81
2023-02-22T04:48:09.974Z,70.33
2023-02-22T04:50:50.035Z,70.51
2023-02-22T04:53:24.569Z,70.51
2023-02-22T04:55:57.995Z,70.48
2023-02-22T04:58:31.432Z,70.46
2023-02-22T05:14:46.995Z,70.38
2023-02-22T05:17:20.196Z,70.59
2023-02-22T05:19:46.916Z,70.66
2023-02-22T05:22:27.223Z,70.49
2023-02-22T05:25:00.236Z,70.51
2023-02-22T05:27:34.016Z,70.53
2023-02-22T05:40:45.980Z,70.74
2023-02-22T05:43:19.280Z,70.91
2023-02-22T05:45:53.004Z,71.02
2023-02-22T05:48:26.324Z,70.90
2023-02-22T05:50:59.981Z,70.75
2023-02-22T05:53:33.394Z,70.64
2023-02-22T06:06:24.953Z,70.47
2023-02-22T06:09:04.964Z,70.56
2023-02-22T06:11:38.224Z,70.35
2023-02-22T06:14:11.992Z,70.74
2023-02-22T06:16:53.680Z,70.65
2023-02-22T06:19:33.986Z,70.65
2023-02-22T06:22:17.294Z,70.56
2023-02-22T06:35:02.178Z,70.56
2023-02-22T06:37:30.855Z,70.62
2023-02-22T06:40:11.995Z,70.64
2023-02-22T06:42:48.351Z,70.80
2023-02-22T06:45:23.039Z,70.83
2023-02-22T06:47:56.203Z,70.70
2023-02-22T07:00:45.953Z,70.57
2023-02-22T07:03:26.012Z,70.31
2023-02-22T07:05:59.218Z,70.40
2023-02-22T07:08:32.952Z,70.45
2023-02-22T07:11:06.220Z,70.35
2023-02-22T07:13:39.971Z,70.48
2023-02-22T07:26:53.210Z,70.47
2023-02-22T07:29:26.184Z,70.45
2023-02-22T07:32:00.020Z,70.35
2023-02-22T07:34:33.317Z,70.21
2023-02-22T07:37:07.001Z,70.51
2023-02-22T07:39:40.224Z,70.53
2023-02-22T07:42:16.001Z,70.53
2023-02-22T07:58:04.485Z,70.54
2023-02-22T08:00:40.985Z,70.31
2023-02-22T08:03:18.001Z,70.41
2023-02-22T08:05:59.977Z,70.58
2023-02-22T08:08:33.637Z,70.74
2023-02-22T08:20:23.944Z,70.67
2023-02-22T08:23:04.958Z,70.58
2023-02-22T08:25:38.650Z,70.91
2023-02-22T08:28:16.204Z,70.82
2023-02-22T08:30:50.464Z,70.72
2023-02-22T08:33:25.070Z,70.96
2023-02-22T08:46:36.970Z,70.67
2023-02-22T08:49:10.156Z,71.00
2023-02-22T08:51:43.967Z,70.71
2023-02-22T08:54:17.280Z,70.97
2023-02-22T08:56:50.957Z,70.78
2023-02-22T08:59:24.283Z,71.08
2023-02-22T09:02:00.006Z,71.07
2023-02-22T09:15:09.976Z,71.05
2023-02-22T09:17:45.946Z,71.12
2023-02-22T09:20:21.982Z,71.16
2023-02-22T09:22:55.625Z,71.31
2023-02-22T09:25:29.952Z,71.24
2023-02-22T09:28:03.635Z,71.32
2023-02-22T09:40:58.924Z,71.43
2023-02-22T09:43:48.942Z,71.64
2023-02-22T09:46:32.782Z,71.53
2023-02-22T09:49:26.961Z,71.44
2023-02-22T09:52:14.572Z,71.69
2023-02-22T10:08:39.956Z,71.06
2023-02-22T10:11:35.033Z,71.09
2023-02-22T10:14:54.960Z,71.07
2023-02-22T10:17:37.925Z,71.06
2023-02-22T10:20:39.941Z,70.93
2023-02-22T10:23:23.808Z,70.99
2023-02-22T10:33:31.630Z,70.91
2023-02-22T10:36:15.856Z,71.03
2023-02-22T10:39:03.965Z,71.06
2023-02-22T10:41:49.334Z,71.16
2023-02-22T10:44:28.973Z,71.19
2023-02-22T10:47:07.768Z,71.03
2023-02-22T11:00:37.936Z,71.17
2023-02-22T11:03:26.949Z,71.38
2023-02-22T11:06:19.296Z,71.13
2023-02-22T11:09:12.955Z,70.83
2023-02-22T11:11:49.044Z,71.12
2023-02-22T11:28:15.950Z,70.80
2023-02-22T11:30:52.180Z,70.83
2023-02-22T11:33:29.933Z,70.51
2023-02-22T11:36:05.839Z,70.94
2023-02-22T11:38:42.597Z,70.87
2023-02-22T11:41:19.867Z,70.87
2023-02-22T11:54:53.921Z,70.83
2023-02-22T11:58:05.933Z,70.75
2023-02-22T12:00:54.432Z,70.75
2023-02-22T12:04:22.285Z,70.75
2023-02-22T12:07:22.395Z,70.71
2023-02-22T12:20:33.897Z,70.87
2023-02-22T12:23:25.952Z,70.53
2023-02-22T12:26:07.426Z,70.63
2023-02-22T12:28:56.970Z,70.56
2023-02-22T12:31:38.520Z,70.58
2023-02-22T12:48:31.963Z,70.78
2023-02-22T12:51:23.289Z,70.66
2023-02-22T12:54:17.917Z,70.60
2023-02-22T12:57:01.694Z,70.65
2023-02-22T12:59:49.933Z,70.43
2023-02-22T13:02:34.149Z,70.25
2023-02-22T13:15:42.958Z,69.94
2023-02-22T13:18:39.959Z,69.62
2023-02-22T13:21:24.095Z,69.69
2023-02-22T13:24:12.938Z,69.45
2023-02-22T13:26:53.268Z,69.39
2023-02-22T13:40:32.906Z,69.36
2023-02-22T13:43:48.206Z,69.58
2023-02-22T13:47:14.380Z,69.71
2023-02-22T13:50:21.936Z,69.62
2023-02-22T13:52:57.763Z,69.73
2023-02-22T14:09:21.937Z,69.45
2023-02-22T14:11:55.170Z,69.33
2023-02-22T14:14:29.930Z,69.25
2023-02-22T14:17:30.337Z,69.52
2023-02-22T14:20:31.936Z,69.67
2023-02-22T14:23:33.705Z,69.49
2023-02-22T14:36:37.889Z,69.35
2023-02-22T14:39:27.940Z,69.46
2023-02-22T14:42:10.995Z,69.27
2023-02-22T14:45:05.571Z,69.20
2023-02-22T14:47:45.469Z,69.45
2023-02-22T15:00:58.915Z,69.72
2023-02-22T15:03:40.909Z,69.55
2023-02-22T15:06:18.757Z,69.43
2023-02-22T15:09:14.896Z,69.76
2023-02-22T15:11:48.225Z,69.55
2023-02-22T15:27:43.923Z,69.36
2023-02-22T15:30:23.639Z,69.45
2023-02-22T15:33:18.974Z,69.52
2023-02-22T15:35:56.849Z,69.35
2023-02-22T15:38:36.916Z,69.24
2023-02-22T15:41:25.353Z,68.93
2023-02-22T15:44:23.276Z,68.88
2023-02-22T15:54:28.129Z,68.94
2023-02-22T15:57:08.140Z,69.08
2023-02-22T15:59:56.764Z,69.13
2023-02-22T16:02:44.941Z,68.81
2023-02-22T16:05:18.840Z,68.54
2023-02-22T16:07:56.936Z,68.68
2023-02-22T16:21:17.345Z,68.20
2023-02-22T16:23:55.998Z,68.31
2023-02-22T16:29:32.949Z,67.78
2023-02-22T16:32:13.048Z,67.65
2023-02-22T16:34:46.133Z,67.84
2023-02-22T16:37:29.909Z,67.59
2023-02-22T16:47:56.865Z,67.57
2023-02-22T16:50:36.910Z,67.42
2023-02-22T16:53:31.711Z,67.20
2023-02-22T16:56:16.292Z,67.47
2023-02-22T16:58:50.891Z,67.31
2023-02-22T17:01:24.912Z,67.19
2023-02-22T17:03:58.140Z,67.23
2023-02-22T17:16:47.875Z,67.06
2023-02-22T17:19:29.896Z,67.17
2023-02-22T17:22:03.301Z,67.19
2023-02-22T17:24:36.915Z,67.14
2023-02-22T17:27:10.151Z,67.19
2023-02-22T17:43:24.910Z,67.25
2023-02-22T17:45:58.277Z,67.28
2023-02-22T17:48:31.925Z,67.03
2023-02-22T17:51:08.281Z,67.16
2023-02-22T17:53:42.883Z,67.18
2023-02-22T17:56:18.542Z,67.35
2023-02-22T17:58:58.569Z,67.49
2023-02-22T18:08:43.877Z,67.46
2023-02-22T18:11:23.922Z,67.29
2023-02-22T18:13:59.433Z,67.46
2023-02-22T18:16:32.974Z,67.51
2023-02-22T18:19:06.232Z,67.64
2023-02-22T18:21:39.893Z,67.60
2023-02-22T18:24:13.535Z,67.72
2023-02-22T18:37:03.854Z,67.44
2023-02-22T18:39:43.900Z,67.58
2023-02-22T18:42:17.124Z,67.35
2023-02-22T18:44:43.846Z,67.56
2023-02-22T18:47:23.919Z,67.60
2023-02-22T19:03:00.877Z,67.92
2023-02-22T19:05:41.901Z,67.81
2023-02-22T19:08:15.138Z,68.13
2023-02-22T19:10:48.891Z,68.21
2023-02-22T19:13:22.257Z,68.38
2023-02-22T19:15:55.893Z,68.62
2023-02-22T19:18:31.194Z,68.67
2023-02-22T19:28:25.882Z,68.86
2023-02-22T19:31:12.380Z,68.94
2023-02-22T19:33:55.877Z,69.08
2023-02-22T19:36:29.492Z,68.91
2023-02-22T19:39:03.903Z,69.02
2023-02-22T19:41:37.708Z,68.89
2023-02-22T19:44:11.881Z,68.97
2023-02-22T19:57:23.892Z,69.04
2023-02-22T19:59:57.110Z,69.29
2023-02-22T20:02:23.840Z,69.07
2023-02-22T20:05:04.698Z,69.31
2023-02-22T20:07:38.559Z,69.19
2023-02-22T20:23:53.878Z,69.03
2023-02-22T20:26:34.408Z,68.89
2023-02-22T20:29:16.882Z,68.82
2023-02-22T20:31:50.164Z,68.82
2023-02-22T20:34:25.978Z,69.04
2023-02-22T20:37:00.410Z,68.84
2023-02-22T20:49:07.853Z,68.81
2023-02-22T20:51:47.915Z,68.95
2023-02-22T20:54:21.272Z,68.77
2023-02-22T20:56:56.879Z,68.68
2023-02-22T20:59:30.207Z,68.67
2023-02-22T21:02:03.902Z,68.75
2023-02-22T21:15:30.868Z,68.50
2023-02-22T21:18:05.337Z,68.45
2023-02-22T21:20:38.863Z,68.36
2023-02-22T21:23:12.292Z,68.29
2023-02-22T21:25:45.868Z,68.30
2023-02-22T21:28:20.266Z,68.63
2023-02-22T21:44:35.899Z,68.15
2023-02-22T21:47:09.125Z,68.39
2023-02-22T21:49:42.879Z,68.17
2023-02-22T21:52:16.685Z,68.30
2023-02-22T21:54:49.848Z,68.26
2023-02-22T21:57:23.118Z,68.11
2023-02-22T22:10:13.845Z,67.96
2023-02-22T22:12:54.615Z,67.99
2023-02-22T22:15:28.195Z,68.03
2023-02-22T22:18:01.883Z,67.91
2023-02-22T22:20:36.092Z,68.06
2023-02-22T22:23:09.871Z,68.04
2023-02-22T22:36:23.860Z,67.65
2023-02-22T22:38:57.076Z,67.63
2023-02-22T22:41:31.858Z,67.52
2023-02-22T22:44:05.194Z,67.69
2023-02-22T22:46:38.901Z,67.56
2023-02-22T22:49:13.285Z,67.54
2023-02-22T23:02:33.857Z,67.26
2023-02-22T23:05:13.838Z,67.21
2023-02-22T23:07:47.063Z,67.10
2023-02-22T23:10:23.850Z,66.97
2023-02-22T23:12:57.196Z,67.03
2023-02-22T23:15:32.531Z,67.17
2023-02-22T23:18:07.965Z,67.16
2023-02-22T23:31:02.926Z,66.93
2023-02-22T23:33:44.866Z,67.06
2023-02-22T23:36:19.369Z,66.91
2023-02-22T23:38:52.860Z,66.95
2023-02-22T23:41:26.124Z,66.94
2023-02-22T23:43:59.841Z,66.98
2023-02-22T23:57:11.861Z,66.65
2023-02-22T23:59:45.092Z,66.36
